createdAt,value
2018-03-06T00:00:09.765Z,13.80
2018-03-06T00:00:41.512Z,13.80
2018-03-06T00:01:13.264Z,13.80
2018-03-06T00:01:45.010Z,13.80
2018-03-06T00:02:16.770Z,13.80
2018-03-06T00:02:48.510Z,13.80
2018-03-06T00:03:20.247Z,13.80
2018-03-06T00:03:52.017Z,13.80
2018-03-06T00:04:23.793Z,13.80
2018-03-06T00:04:56.297Z,13.70
2018-03-06T00:05:28.037Z,13.70
2018-03-06T00:05:59.769Z,13.80
2018-03-06T00:06:31.519Z,13.80
2018-03-06T00:07:03.243Z,13.80
2018-03-06T00:07:35.010Z,13.70
2018-03-06T00:08:06.749Z,13.80
2018-03-06T00:08:38.471Z,13.80
2018-03-06T00:09:10.218Z,13.70
2018-03-06T00:09:41.991Z,13.70
2018-03-06T00:10:13.710Z,13.70
2018-03-06T00:10:45.442Z,13.70
2018-03-06T00:11:18.004Z,13.70
2018-03-06T00:11:49.760Z,13.70
2018-03-06T00:12:22.467Z,13.70
2018-03-06T00:12:54.202Z,13.70
2018-03-06T00:13:25.938Z,13.70
2018-03-06T00:13:57.671Z,13.70
2018-03-06T00:14:29.388Z,13.70
2018-03-06T00:15:01.928Z,13.70
2018-03-06T00:15:33.622Z,13.70
2018-03-06T00:16:05.362Z,13.70
2018-03-06T00:16:37.107Z,13.70
2018-03-06T00:17:08.840Z,13.70
2018-03-06T00:17:40.566Z,13.70
2018-03-06T00:18:12.287Z,13.70
2018-03-06T00:18:44.038Z,13.70
2018-03-06T00:19:15.802Z,13.70
2018-03-06T00:19:47.564Z,13.70
2018-03-06T00:20:20.094Z,13.70
2018-03-06T00:20:51.889Z,13.70
2018-03-06T00:21:23.628Z,13.70
2018-03-06T00:21:55.396Z,13.70
2018-03-06T00:22:27.295Z,13.70
2018-03-06T00:22:59.041Z,13.70
2018-03-06T00:23:31.617Z,13.70
2018-03-06T00:24:03.369Z,13.60
2018-03-06T00:24:35.143Z,13.70
2018-03-06T00:25:06.867Z,13.70
2018-03-06T00:25:38.664Z,13.70
2018-03-06T00:26:10.403Z,13.70
2018-03-06T00:26:42.172Z,13.70
2018-03-06T00:27:14.656Z,13.60
2018-03-06T00:27:46.495Z,13.60
2018-03-06T00:28:19.014Z,13.60
2018-03-06T00:28:50.816Z,13.60
2018-03-06T00:29:23.348Z,13.60
2018-03-06T00:29:55.099Z,13.60
2018-03-06T00:30:26.849Z,13.60
2018-03-06T00:30:58.610Z,13.70
2018-03-06T00:31:30.358Z,13.70
2018-03-06T00:32:02.081Z,13.70
2018-03-06T00:32:33.824Z,13.70
2018-03-06T00:33:06.335Z,13.70
2018-03-06T00:33:38.096Z,13.60
2018-03-06T00:34:09.960Z,13.70
2018-03-06T00:34:41.713Z,13.70
2018-03-06T00:35:13.456Z,13.60
2018-03-06T00:35:45.176Z,13.70
2018-03-06T00:36:16.933Z,13.70
2018-03-06T00:36:48.697Z,13.70
2018-03-06T00:37:21.411Z,13.70
2018-03-06T00:37:53.155Z,13.60
2018-03-06T00:38:24.916Z,13.70
2018-03-06T00:38:56.684Z,13.70
2018-03-06T00:39:28.405Z,13.60
2018-03-06T00:40:00.143Z,13.70
2018-03-06T00:40:31.876Z,13.60
2018-03-06T00:41:03.593Z,13.60
2018-03-06T00:41:35.347Z,13.70
2018-03-06T00:42:07.075Z,13.60
2018-03-06T00:42:39.562Z,13.60
2018-03-06T00:43:11.305Z,13.70
2018-03-06T00:43:43.101Z,13.60
2018-03-06T00:44:14.812Z,13.60
2018-03-06T00:44:46.572Z,13.20
2018-03-06T00:45:18.292Z,13.70
2018-03-06T00:45:50.024Z,13.60
2018-03-06T00:46:21.746Z,13.70
2018-03-06T00:46:53.472Z,13.60
2018-03-06T00:47:25.987Z,13.60
2018-03-06T00:47:57.707Z,13.60
2018-03-06T00:48:29.443Z,13.60
2018-03-06T00:49:01.167Z,13.60
2018-03-06T00:49:34.444Z,13.70
2018-03-06T00:50:06.957Z,13.60
2018-03-06T00:50:38.689Z,13.60
2018-03-06T00:51:10.429Z,13.60
2018-03-06T00:51:42.159Z,13.70
2018-03-06T00:52:13.908Z,13.60
2018-03-06T00:52:45.684Z,13.70
2018-03-06T00:53:17.419Z,13.60
2018-03-06T00:53:49.144Z,13.60
2018-03-06T00:54:20.931Z,13.60
2018-03-06T00:54:52.674Z,13.60
2018-03-06T00:55:24.434Z,13.60
2018-03-06T00:55:56.157Z,13.60
2018-03-06T00:56:27.954Z,13.60
2018-03-06T00:57:00.467Z,13.60
2018-03-06T00:57:32.217Z,13.60
2018-03-06T00:58:03.936Z,13.60
2018-03-06T00:58:35.695Z,13.60
2018-03-06T00:59:07.604Z,13.60
2018-03-06T00:59:40.109Z,13.60
2018-03-06T01:00:11.863Z,13.60
2018-03-06T01:00:43.618Z,13.60
2018-03-06T01:01:15.386Z,13.60
2018-03-06T01:01:47.114Z,13.60
2018-03-06T01:02:18.863Z,13.60
2018-03-06T01:02:50.603Z,13.60
2018-03-06T01:03:22.331Z,13.60
2018-03-06T01:03:54.108Z,13.60
2018-03-06T01:04:26.589Z,13.60
2018-03-06T01:04:58.328Z,13.60
2018-03-06T01:05:30.077Z,13.60
2018-03-06T01:06:01.805Z,13.60
2018-03-06T01:06:34.344Z,13.60
2018-03-06T01:07:06.078Z,13.60
2018-03-06T01:07:37.812Z,13.60
2018-03-06T01:08:09.548Z,13.60
2018-03-06T01:08:41.282Z,14.20
2018-03-06T01:09:13.064Z,13.60
2018-03-06T01:09:44.798Z,13.60
2018-03-06T01:10:16.797Z,13.60
2018-03-06T01:10:48.652Z,13.60
2018-03-06T01:11:20.385Z,13.60
2018-03-06T01:11:52.120Z,13.60
2018-03-06T01:12:24.622Z,13.60
2018-03-06T01:12:56.351Z,13.60
2018-03-06T01:13:28.106Z,13.60
2018-03-06T01:13:59.848Z,13.60
2018-03-06T01:14:31.724Z,13.60
2018-03-06T01:15:03.687Z,13.60
2018-03-06T01:15:35.471Z,13.60
2018-03-06T01:16:07.204Z,13.60
2018-03-06T01:16:39.706Z,13.60
2018-03-06T01:17:11.449Z,13.50
2018-03-06T01:17:43.176Z,13.60
2018-03-06T01:18:14.909Z,13.50
2018-03-06T01:18:46.659Z,13.50
2018-03-06T01:19:18.385Z,13.60
2018-03-06T01:19:50.123Z,13.60
2018-03-06T01:20:21.867Z,13.50
2018-03-06T01:20:53.593Z,13.60
2018-03-06T01:21:25.319Z,13.60
2018-03-06T01:21:57.080Z,13.60
2018-03-06T01:22:28.832Z,13.60
2018-03-06T01:23:00.589Z,13.60
2018-03-06T01:23:32.313Z,13.60
2018-03-06T01:24:04.052Z,13.50
2018-03-06T01:24:35.812Z,13.60
2018-03-06T01:25:07.546Z,13.50
2018-03-06T01:25:39.271Z,13.50
2018-03-06T01:26:11.780Z,13.50
2018-03-06T01:26:43.519Z,13.50
2018-03-06T01:27:15.225Z,13.50
2018-03-06T01:27:47.749Z,13.50
2018-03-06T01:28:19.596Z,13.50
2018-03-06T01:28:51.336Z,13.50
2018-03-06T01:29:23.128Z,13.50
2018-03-06T01:29:54.889Z,13.50
2018-03-06T01:30:26.616Z,13.50
2018-03-06T01:30:58.353Z,13.50
2018-03-06T01:31:30.853Z,13.50
2018-03-06T01:32:02.580Z,13.50
2018-03-06T01:32:34.341Z,13.50
2018-03-06T01:33:06.088Z,13.50
2018-03-06T01:33:37.837Z,13.60
2018-03-06T01:34:09.628Z,13.50
2018-03-06T01:34:41.497Z,13.60
2018-03-06T01:35:13.986Z,13.50
2018-03-06T01:35:45.753Z,13.50
2018-03-06T01:36:17.580Z,13.50
2018-03-06T01:36:49.351Z,13.50
2018-03-06T01:37:21.111Z,13.50
2018-03-06T01:37:52.865Z,13.60
2018-03-06T01:38:24.625Z,13.60
2018-03-06T01:38:57.120Z,13.60
2018-03-06T01:39:28.847Z,13.60
2018-03-06T01:40:00.580Z,13.50
2018-03-06T01:40:32.325Z,13.50
2018-03-06T01:41:04.056Z,13.60
2018-03-06T01:41:36.554Z,13.50
2018-03-06T01:42:08.321Z,13.50
2018-03-06T01:42:40.040Z,13.50
2018-03-06T01:43:11.792Z,13.60
2018-03-06T01:43:43.534Z,13.60
2018-03-06T01:44:15.297Z,13.50
2018-03-06T01:44:47.039Z,13.60
2018-03-06T01:45:18.772Z,13.60
2018-03-06T01:45:50.503Z,13.60
2018-03-06T01:46:22.252Z,13.60
2018-03-06T01:46:53.970Z,13.60
2018-03-06T01:47:25.725Z,13.60
2018-03-06T01:47:57.457Z,13.60
2018-03-06T01:48:30.236Z,13.60
2018-03-06T01:49:02.727Z,13.50
2018-03-06T01:49:34.505Z,13.50
2018-03-06T01:50:06.209Z,13.50
2018-03-06T01:50:37.957Z,13.60
2018-03-06T01:51:09.709Z,13.60
2018-03-06T01:51:41.483Z,13.60
2018-03-06T01:52:13.229Z,13.60
2018-03-06T01:52:44.963Z,13.60
2018-03-06T01:53:16.697Z,13.50
2018-03-06T01:53:48.441Z,13.60
2018-03-06T01:54:20.190Z,13.60
2018-03-06T01:54:51.931Z,13.60
2018-03-06T01:55:23.696Z,13.50
2018-03-06T01:55:55.444Z,13.60
2018-03-06T01:56:27.193Z,13.50
2018-03-06T01:57:00.026Z,13.60
2018-03-06T01:57:31.771Z,13.50
2018-03-06T01:58:03.512Z,13.60
2018-03-06T01:58:35.262Z,13.50
2018-03-06T01:59:06.983Z,13.50
2018-03-06T01:59:38.714Z,13.60
2018-03-06T02:00:10.444Z,13.50
2018-03-06T02:00:42.955Z,13.50
2018-03-06T02:01:14.672Z,13.50
2018-03-06T02:01:46.427Z,13.60
2018-03-06T02:02:18.190Z,13.60
2018-03-06T02:02:49.946Z,13.60
2018-03-06T02:03:21.712Z,13.60
2018-03-06T02:03:53.452Z,13.60
2018-03-06T02:04:25.199Z,13.60
2018-03-06T02:04:56.929Z,13.60
2018-03-06T02:05:28.706Z,13.60
2018-03-06T02:06:01.233Z,13.60
2018-03-06T02:06:32.950Z,13.60
2018-03-06T02:07:04.700Z,13.60
2018-03-06T02:07:36.452Z,13.60
2018-03-06T02:08:08.206Z,13.60
2018-03-06T02:08:39.944Z,13.60
2018-03-06T02:09:11.673Z,13.60
2018-03-06T02:09:43.396Z,13.60
2018-03-06T02:10:15.197Z,13.60
2018-03-06T02:10:47.705Z,13.60
2018-03-06T02:11:19.460Z,13.60
2018-03-06T02:11:51.229Z,13.60
2018-03-06T02:12:22.984Z,13.50
2018-03-06T02:12:54.733Z,13.60
2018-03-06T02:13:27.227Z,13.60
2018-03-06T02:13:58.962Z,13.60
2018-03-06T02:14:30.713Z,13.50
2018-03-06T02:15:02.481Z,13.60
2018-03-06T02:15:34.250Z,13.60
2018-03-06T02:16:05.993Z,13.60
2018-03-06T02:16:37.734Z,13.60
2018-03-06T02:17:09.465Z,13.60
2018-03-06T02:17:41.373Z,13.60
2018-03-06T02:18:13.873Z,13.60
2018-03-06T02:18:45.609Z,13.60
2018-03-06T02:19:17.387Z,13.60
2018-03-06T02:19:49.129Z,13.60
2018-03-06T02:20:20.883Z,13.60
2018-03-06T02:20:52.628Z,13.60
2018-03-06T02:21:24.356Z,13.60
2018-03-06T02:21:56.143Z,13.60
2018-03-06T02:22:27.860Z,13.60
2018-03-06T02:22:59.637Z,13.60
2018-03-06T02:23:31.398Z,13.60
2018-03-06T02:24:03.154Z,13.60
2018-03-06T02:24:34.909Z,13.60
2018-03-06T02:25:06.642Z,13.60
2018-03-06T02:25:38.371Z,13.60
2018-03-06T02:26:10.099Z,13.60
2018-03-06T02:26:42.590Z,13.60
2018-03-06T02:27:14.335Z,13.60
2018-03-06T02:27:46.068Z,13.60
2018-03-06T02:28:17.821Z,13.60
2018-03-06T02:28:49.553Z,13.60
2018-03-06T02:29:21.333Z,13.60
2018-03-06T02:29:53.091Z,13.60
2018-03-06T02:30:24.827Z,13.60
2018-03-06T02:30:56.574Z,13.60
2018-03-06T02:31:28.329Z,13.60
2018-03-06T02:32:00.044Z,13.60
2018-03-06T02:32:31.808Z,13.60
2018-03-06T02:33:03.776Z,13.60
2018-03-06T02:33:35.537Z,13.60
2018-03-06T02:34:08.274Z,13.60
2018-03-06T02:34:40.252Z,13.60
2018-03-06T02:35:13.104Z,13.60
2018-03-06T02:35:45.097Z,13.60
2018-03-06T02:36:17.738Z,13.60
2018-03-06T02:36:49.809Z,13.60
2018-03-06T02:37:21.782Z,13.60
2018-03-06T02:37:53.849Z,13.70
2018-03-06T02:38:25.795Z,13.60
2018-03-06T02:38:57.832Z,13.60
2018-03-06T02:39:30.484Z,13.70
2018-03-06T02:40:02.218Z,13.70
2018-03-06T02:40:34.753Z,13.70
2018-03-06T02:41:06.484Z,13.70
2018-03-06T02:41:38.223Z,13.70
2018-03-06T02:42:09.965Z,13.60
2018-03-06T02:42:41.721Z,13.70
2018-03-06T02:43:13.474Z,13.60
2018-03-06T02:43:45.479Z,13.70
2018-03-06T02:44:17.406Z,13.70
2018-03-06T02:44:50.296Z,13.60
2018-03-06T02:45:22.043Z,13.70
2018-03-06T02:45:53.772Z,13.70
2018-03-06T02:46:25.748Z,13.70
2018-03-06T02:46:57.447Z,13.60
2018-03-06T02:47:29.206Z,13.70
2018-03-06T02:48:00.953Z,13.60
2018-03-06T02:48:32.687Z,13.70
2018-03-06T02:49:04.421Z,13.70
2018-03-06T02:49:36.950Z,13.60
2018-03-06T02:50:08.686Z,13.70
2018-03-06T02:50:40.469Z,13.70
2018-03-06T02:51:12.193Z,13.70
2018-03-06T02:51:43.907Z,13.70
2018-03-06T02:52:15.679Z,13.70
2018-03-06T02:52:47.416Z,13.70
2018-03-06T02:53:19.181Z,13.70
2018-03-06T02:53:50.899Z,13.70
2018-03-06T02:54:22.656Z,13.70
2018-03-06T02:54:54.429Z,13.70
2018-03-06T02:55:26.948Z,13.70
2018-03-06T02:55:58.666Z,13.70
2018-03-06T02:56:30.403Z,13.70
2018-03-06T02:57:02.144Z,13.70
2018-03-06T02:57:33.892Z,13.70
2018-03-06T02:58:05.639Z,13.70
2018-03-06T02:58:37.375Z,13.70
2018-03-06T02:59:09.108Z,13.70
2018-03-06T02:59:40.839Z,13.70
2018-03-06T03:00:13.378Z,13.70
2018-03-06T03:00:45.115Z,13.60
2018-03-06T03:01:16.849Z,13.60
2018-03-06T03:01:48.638Z,13.60
2018-03-06T03:02:20.325Z,13.70
2018-03-06T03:02:52.062Z,13.70
2018-03-06T03:03:23.806Z,13.70
2018-03-06T03:03:55.512Z,13.70
2018-03-06T03:04:28.036Z,13.70
2018-03-06T03:04:59.779Z,13.70
2018-03-06T03:05:31.510Z,13.70
2018-03-06T03:06:03.225Z,13.70
2018-03-06T03:06:34.955Z,13.70
2018-03-06T03:07:07.454Z,13.70
2018-03-06T03:07:39.314Z,13.70
2018-03-06T03:08:11.024Z,13.70
2018-03-06T03:08:42.766Z,13.70
2018-03-06T03:09:14.499Z,13.70
2018-03-06T03:09:46.221Z,13.70
2018-03-06T03:10:18.740Z,13.60
2018-03-06T03:10:50.473Z,13.60
2018-03-06T03:11:22.211Z,13.60
2018-03-06T03:11:53.937Z,13.70
2018-03-06T03:12:25.692Z,13.70
2018-03-06T03:12:57.552Z,13.70
2018-03-06T03:13:29.283Z,13.70
2018-03-06T03:14:01.002Z,13.60
2018-03-06T03:14:32.732Z,13.60
2018-03-06T03:15:04.482Z,13.70
2018-03-06T03:15:36.204Z,13.70
2018-03-06T03:16:07.962Z,13.70
2018-03-06T03:16:39.717Z,13.70
2018-03-06T03:17:11.466Z,13.70
2018-03-06T03:17:43.962Z,13.70
2018-03-06T03:18:15.691Z,13.60
2018-03-06T03:18:47.412Z,13.70
2018-03-06T03:19:19.916Z,13.70
2018-03-06T03:19:51.679Z,13.70
2018-03-06T03:20:23.388Z,13.60
2018-03-06T03:20:55.116Z,13.70
2018-03-06T03:21:27.614Z,13.70
2018-03-06T03:21:59.335Z,13.70
2018-03-06T03:22:31.092Z,13.70
2018-03-06T03:23:03.574Z,13.70
2018-03-06T03:23:35.305Z,13.70
2018-03-06T03:24:07.058Z,13.70
2018-03-06T03:24:38.786Z,13.70
2018-03-06T03:25:10.520Z,13.70
2018-03-06T03:25:42.269Z,13.70
2018-03-06T03:26:14.006Z,13.70
2018-03-06T03:26:46.508Z,13.70
2018-03-06T03:27:18.240Z,13.70
2018-03-06T03:27:49.983Z,13.70
2018-03-06T03:28:21.706Z,13.70
2018-03-06T03:28:53.478Z,13.70
2018-03-06T03:29:25.214Z,13.80
2018-03-06T03:29:56.956Z,13.80
2018-03-06T03:30:28.702Z,13.70
2018-03-06T03:31:00.424Z,13.70
2018-03-06T03:31:32.196Z,13.80
2018-03-06T03:32:03.960Z,13.80
2018-03-06T03:32:35.726Z,13.80
2018-03-06T03:33:07.455Z,13.80
2018-03-06T03:33:39.171Z,13.80
2018-03-06T03:34:10.903Z,13.80
2018-03-06T03:34:42.637Z,13.80
2018-03-06T03:35:15.137Z,13.80
2018-03-06T03:35:46.871Z,13.80
2018-03-06T03:36:18.592Z,13.80
2018-03-06T03:36:50.322Z,13.80
2018-03-06T03:37:22.843Z,13.80
2018-03-06T03:37:54.624Z,13.80
2018-03-06T03:38:26.334Z,13.80
2018-03-06T03:38:58.073Z,13.70
2018-03-06T03:39:29.823Z,13.70
2018-03-06T03:40:01.571Z,13.80
2018-03-06T03:40:33.317Z,13.80
2018-03-06T03:41:05.040Z,13.80
2018-03-06T03:41:36.802Z,13.80
2018-03-06T03:42:08.572Z,13.80
2018-03-06T03:42:41.093Z,13.80
2018-03-06T03:43:12.835Z,13.80
2018-03-06T03:43:44.576Z,13.80
2018-03-06T03:44:16.353Z,13.80
2018-03-06T03:44:48.070Z,13.80
2018-03-06T03:45:20.095Z,13.80
2018-03-06T03:45:51.849Z,13.70
2018-03-06T03:46:23.632Z,13.80
2018-03-06T03:46:55.617Z,13.80
2018-03-06T03:47:28.166Z,13.80
2018-03-06T03:47:59.918Z,13.80
2018-03-06T03:48:32.425Z,13.80
2018-03-06T03:49:04.152Z,13.80
2018-03-06T03:49:35.916Z,13.80
2018-03-06T03:50:07.647Z,13.80
2018-03-06T03:50:39.402Z,13.80
2018-03-06T03:51:11.140Z,13.80
2018-03-06T03:51:42.906Z,13.80
2018-03-06T03:52:14.656Z,13.80
2018-03-06T03:52:46.377Z,13.80
2018-03-06T03:53:18.129Z,13.80
2018-03-06T03:53:49.900Z,13.80
2018-03-06T03:54:21.625Z,13.90
2018-03-06T03:54:53.368Z,13.90
2018-03-06T03:55:25.105Z,13.80
2018-03-06T03:55:56.842Z,13.80
2018-03-06T03:56:28.584Z,13.90
2018-03-06T03:57:00.342Z,13.80
2018-03-06T03:57:32.172Z,13.90
2018-03-06T03:58:03.936Z,13.90
2018-03-06T03:58:35.683Z,13.90
2018-03-06T03:59:07.450Z,13.90
2018-03-06T03:59:39.222Z,13.90
2018-03-06T04:00:11.715Z,13.90
2018-03-06T04:00:43.445Z,13.90
2018-03-06T04:01:15.184Z,13.90
2018-03-06T04:01:46.931Z,13.90
2018-03-06T04:02:18.673Z,13.90
2018-03-06T04:02:50.413Z,13.90
2018-03-06T04:03:22.183Z,13.90
2018-03-06T04:03:53.933Z,13.90
2018-03-06T04:04:25.707Z,13.90
2018-03-06T04:04:57.443Z,13.90
2018-03-06T04:05:29.234Z,13.90
2018-03-06T04:06:00.928Z,13.90
2018-03-06T04:06:32.666Z,13.90
2018-03-06T04:07:04.439Z,13.90
2018-03-06T04:07:36.159Z,13.90
2018-03-06T04:08:07.897Z,13.90
2018-03-06T04:08:40.415Z,13.90
2018-03-06T04:09:12.152Z,13.90
2018-03-06T04:09:43.902Z,13.90
2018-03-06T04:10:15.655Z,13.90
2018-03-06T04:10:47.374Z,13.90
2018-03-06T04:11:19.157Z,13.90
2018-03-06T04:11:51.693Z,14.00
2018-03-06T04:12:23.446Z,14.00
2018-03-06T04:12:55.159Z,14.00
2018-03-06T04:13:27.144Z,14.00
2018-03-06T04:13:58.872Z,14.00
2018-03-06T04:14:30.628Z,14.00
2018-03-06T04:15:02.364Z,14.00
2018-03-06T04:15:34.107Z,14.00
2018-03-06T04:16:05.868Z,14.00
2018-03-06T04:16:37.611Z,14.00
2018-03-06T04:17:09.337Z,14.00
2018-03-06T04:17:41.080Z,14.00
2018-03-06T04:18:12.789Z,14.00
2018-03-06T04:18:44.528Z,14.00
2018-03-06T04:19:16.254Z,14.00
2018-03-06T04:19:48.734Z,14.00
2018-03-06T04:20:20.518Z,14.00
2018-03-06T04:20:52.275Z,14.00
2018-03-06T04:21:23.994Z,14.00
2018-03-06T04:21:55.727Z,14.00
2018-03-06T04:22:27.477Z,14.00
2018-03-06T04:22:59.196Z,14.00
2018-03-06T04:23:30.920Z,14.00
2018-03-06T04:24:03.437Z,14.00
2018-03-06T04:24:35.148Z,14.00
2018-03-06T04:25:06.880Z,14.00
2018-03-06T04:25:39.379Z,14.10
2018-03-06T04:26:11.092Z,14.00
2018-03-06T04:26:42.841Z,14.10
2018-03-06T04:27:14.560Z,14.10
2018-03-06T04:27:46.284Z,14.10
2018-03-06T04:28:18.014Z,14.10
2018-03-06T04:28:49.864Z,14.10
2018-03-06T04:29:21.632Z,14.10
2018-03-06T04:29:53.386Z,14.10
2018-03-06T04:30:25.918Z,14.10
2018-03-06T04:30:57.649Z,14.10
2018-03-06T04:31:29.371Z,14.10
2018-03-06T04:32:01.113Z,14.10
2018-03-06T04:32:32.839Z,14.10
2018-03-06T04:33:04.595Z,14.10
2018-03-06T04:33:36.312Z,14.10
2018-03-06T04:34:08.043Z,14.10
2018-03-06T04:34:39.817Z,14.10
2018-03-06T04:35:12.307Z,14.10
2018-03-06T04:35:44.024Z,14.10
2018-03-06T04:36:16.527Z,14.10
2018-03-06T04:36:48.291Z,14.10
2018-03-06T04:37:20.021Z,14.10
2018-03-06T04:37:51.733Z,14.10
2018-03-06T04:38:23.572Z,14.10
2018-03-06T04:38:55.321Z,14.10
2018-03-06T04:39:27.075Z,14.10
2018-03-06T04:39:58.838Z,14.10
2018-03-06T04:40:30.613Z,14.10
2018-03-06T04:41:02.333Z,14.10
2018-03-06T04:41:34.072Z,14.10
2018-03-06T04:42:05.813Z,14.10
2018-03-06T04:42:37.571Z,14.10
2018-03-06T04:43:09.284Z,14.10
2018-03-06T04:43:41.028Z,14.10
2018-03-06T04:44:12.789Z,14.10
2018-03-06T04:44:44.503Z,14.10
2018-03-06T04:45:16.219Z,14.10
2018-03-06T04:45:47.945Z,14.10
2018-03-06T04:46:19.710Z,14.10
2018-03-06T04:46:51.412Z,14.10
2018-03-06T04:47:23.152Z,14.10
2018-03-06T04:47:54.877Z,14.10
2018-03-06T04:48:26.626Z,14.10
2018-03-06T04:48:58.353Z,14.10
2018-03-06T04:49:30.097Z,14.10
2018-03-06T04:50:02.599Z,14.10
2018-03-06T04:50:34.325Z,14.10
2018-03-06T04:51:06.055Z,14.10
2018-03-06T04:51:37.792Z,14.10
2018-03-06T04:52:09.545Z,14.10
2018-03-06T04:52:41.273Z,14.10
2018-03-06T04:53:13.043Z,14.10
2018-03-06T04:53:44.779Z,14.10
2018-03-06T04:54:16.517Z,14.10
2018-03-06T04:54:48.245Z,14.10
2018-03-06T04:55:20.737Z,14.20
2018-03-06T04:55:52.476Z,14.20
2018-03-06T04:56:24.211Z,14.20
2018-03-06T04:56:55.968Z,14.20
2018-03-06T04:57:27.710Z,14.20
2018-03-06T04:57:59.474Z,14.20
2018-03-06T04:58:31.295Z,14.20
2018-03-06T04:59:03.862Z,14.20
2018-03-06T04:59:35.678Z,14.20
2018-03-06T05:00:07.400Z,14.20
2018-03-06T05:00:39.175Z,14.20
2018-03-06T05:01:11.764Z,14.20
2018-03-06T05:01:43.546Z,14.20
2018-03-06T05:02:15.296Z,14.20
2018-03-06T05:02:47.034Z,14.20
2018-03-06T05:03:18.773Z,14.20
2018-03-06T05:03:50.511Z,14.20
2018-03-06T05:04:22.238Z,14.20
2018-03-06T05:04:53.979Z,14.20
2018-03-06T05:05:25.738Z,14.20
2018-03-06T05:05:57.476Z,14.30
2018-03-06T05:06:29.227Z,14.30
2018-03-06T05:07:00.971Z,14.30
2018-03-06T05:07:32.712Z,14.30
2018-03-06T05:08:04.454Z,14.30
2018-03-06T05:08:36.161Z,14.30
2018-03-06T05:09:08.665Z,14.30
2018-03-06T05:09:40.436Z,14.30
2018-03-06T05:10:12.163Z,14.30
2018-03-06T05:10:43.928Z,14.30
2018-03-06T05:11:16.558Z,14.30
2018-03-06T05:11:48.345Z,14.30
2018-03-06T05:12:20.151Z,14.30
2018-03-06T05:12:51.848Z,14.30
2018-03-06T05:13:24.360Z,14.20
2018-03-06T05:13:56.144Z,14.20
2018-03-06T05:14:27.879Z,14.30
2018-03-06T05:14:59.592Z,14.20
2018-03-06T05:15:31.348Z,14.20
2018-03-06T05:16:03.072Z,14.30
2018-03-06T05:16:34.864Z,14.20
2018-03-06T05:17:06.606Z,14.30
2018-03-06T05:17:38.371Z,14.40
2018-03-06T05:18:10.335Z,14.40
2018-03-06T05:18:42.876Z,14.60
2018-03-06T05:19:14.613Z,14.60
2018-03-06T05:19:46.348Z,14.70
2018-03-06T05:20:18.081Z,14.70
2018-03-06T05:20:49.879Z,14.80
2018-03-06T05:21:22.399Z,14.80
2018-03-06T05:21:54.159Z,14.80
2018-03-06T05:22:25.871Z,14.90
2018-03-06T05:22:57.620Z,14.90
2018-03-06T05:23:29.361Z,14.90
2018-03-06T05:24:01.138Z,14.90
2018-03-06T05:24:33.662Z,14.90
2018-03-06T05:25:05.383Z,14.90
2018-03-06T05:25:37.109Z,14.90
2018-03-06T05:26:08.876Z,14.90
2018-03-06T05:26:40.589Z,14.90
2018-03-06T05:27:13.111Z,14.90
2018-03-06T05:27:44.894Z,14.90
2018-03-06T05:28:17.427Z,14.90
2018-03-06T05:28:49.248Z,14.90
2018-03-06T05:29:21.015Z,14.90
2018-03-06T05:29:52.808Z,14.90
2018-03-06T05:30:25.317Z,14.90
2018-03-06T05:30:57.050Z,14.90
2018-03-06T05:31:28.792Z,14.80
2018-03-06T05:32:00.501Z,14.80
2018-03-06T05:32:32.234Z,14.80
2018-03-06T05:33:04.722Z,14.70
2018-03-06T05:33:36.436Z,14.70
2018-03-06T05:34:08.957Z,14.70
2018-03-06T05:34:40.671Z,14.70
2018-03-06T05:35:12.386Z,14.70
2018-03-06T05:35:44.895Z,14.60
2018-03-06T05:36:16.634Z,14.60
2018-03-06T05:36:48.376Z,14.60
2018-03-06T05:37:20.133Z,14.60
2018-03-06T05:37:51.863Z,14.60
2018-03-06T05:38:23.603Z,14.50
2018-03-06T05:38:55.378Z,14.50
2018-03-06T05:39:27.821Z,14.50
2018-03-06T05:39:59.542Z,14.50
2018-03-06T05:40:31.264Z,14.50
2018-03-06T05:41:03.792Z,14.50
2018-03-06T05:41:35.541Z,14.40
2018-03-06T05:42:07.286Z,14.40
2018-03-06T05:42:39.009Z,14.40
2018-03-06T05:43:10.736Z,14.40
2018-03-06T05:43:42.465Z,14.40
2018-03-06T05:44:14.183Z,14.40
2018-03-06T05:44:45.918Z,14.40
2018-03-06T05:45:17.657Z,14.40
2018-03-06T05:45:49.392Z,14.40
2018-03-06T05:46:21.120Z,14.40
2018-03-06T05:46:52.899Z,14.40
2018-03-06T05:47:24.688Z,14.40
2018-03-06T05:47:56.414Z,14.40
2018-03-06T05:48:28.901Z,14.40
2018-03-06T05:49:00.647Z,14.30
2018-03-06T05:49:32.383Z,14.30
2018-03-06T05:50:04.135Z,14.30
2018-03-06T05:50:35.852Z,14.30
2018-03-06T05:51:08.357Z,14.30
2018-03-06T05:51:40.167Z,14.30
2018-03-06T05:52:12.653Z,14.30
2018-03-06T05:52:44.397Z,14.30
2018-03-06T05:53:16.136Z,14.30
2018-03-06T05:53:47.880Z,14.30
2018-03-06T05:54:19.588Z,14.30
2018-03-06T05:54:52.100Z,14.20
2018-03-06T05:55:23.835Z,14.30
2018-03-06T05:55:55.564Z,14.20
2018-03-06T05:56:27.300Z,14.20
2018-03-06T05:56:59.823Z,14.20
2018-03-06T05:57:31.552Z,14.20
2018-03-06T05:58:03.300Z,14.20
2018-03-06T05:58:35.032Z,14.20
2018-03-06T05:59:06.789Z,14.20
2018-03-06T05:59:38.548Z,14.20
2018-03-06T06:00:10.273Z,14.20
2018-03-06T06:00:42.024Z,14.20
2018-03-06T06:01:13.761Z,14.20
2018-03-06T06:01:45.516Z,14.20
2018-03-06T06:02:17.257Z,14.60
2018-03-06T06:02:49.063Z,14.10
2018-03-06T06:03:21.560Z,14.10
2018-03-06T06:03:53.305Z,14.10
2018-03-06T06:04:25.031Z,14.10
2018-03-06T06:04:56.776Z,14.10
2018-03-06T06:05:29.430Z,14.10
2018-03-06T06:06:01.168Z,14.10
2018-03-06T06:06:32.900Z,14.10
2018-03-06T06:07:04.665Z,14.10
2018-03-06T06:07:36.416Z,14.10
2018-03-06T06:08:08.153Z,14.10
2018-03-06T06:08:39.884Z,14.10
2018-03-06T06:09:11.616Z,14.10
2018-03-06T06:09:44.365Z,14.10
2018-03-06T06:10:16.174Z,14.10
2018-03-06T06:10:47.903Z,14.10
2018-03-06T06:11:19.636Z,14.10
2018-03-06T06:11:51.390Z,14.10
2018-03-06T06:12:23.140Z,14.10
2018-03-06T06:12:54.876Z,14.10
2018-03-06T06:13:26.639Z,14.10
2018-03-06T06:13:58.342Z,14.10
2018-03-06T06:14:30.100Z,14.10
2018-03-06T06:15:01.853Z,14.10
2018-03-06T06:15:33.671Z,14.10
2018-03-06T06:16:05.404Z,14.10
2018-03-06T06:16:37.201Z,14.10
2018-03-06T06:17:08.942Z,14.10
2018-03-06T06:17:40.682Z,14.10
2018-03-06T06:18:12.409Z,14.10
2018-03-06T06:18:44.142Z,14.10
2018-03-06T06:19:16.019Z,14.10
2018-03-06T06:19:48.474Z,14.10
2018-03-06T06:20:20.270Z,14.10
2018-03-06T06:20:52.289Z,14.10
2018-03-06T06:21:24.010Z,14.10
2018-03-06T06:21:55.767Z,14.10
2018-03-06T06:22:27.495Z,14.10
2018-03-06T06:22:59.228Z,14.10
2018-03-06T06:23:30.959Z,14.10
2018-03-06T06:24:02.722Z,14.10
2018-03-06T06:24:34.512Z,14.10
2018-03-06T06:25:06.205Z,14.10
2018-03-06T06:25:37.944Z,14.10
2018-03-06T06:26:10.437Z,14.10
2018-03-06T06:26:42.175Z,14.10
2018-03-06T06:27:13.912Z,14.10
2018-03-06T06:27:45.693Z,14.10
2018-03-06T06:28:17.424Z,14.10
2018-03-06T06:28:49.165Z,14.10
2018-03-06T06:29:20.909Z,14.10
2018-03-06T06:29:52.630Z,14.10
2018-03-06T06:30:24.386Z,14.10
2018-03-06T06:30:56.127Z,14.10
2018-03-06T06:31:27.852Z,14.10
2018-03-06T06:31:59.608Z,14.10
2018-03-06T06:32:31.340Z,14.10
2018-03-06T06:33:03.076Z,14.10
2018-03-06T06:33:35.563Z,14.10
2018-03-06T06:34:07.295Z,14.10
2018-03-06T06:34:39.027Z,14.10
2018-03-06T06:35:11.521Z,14.10
2018-03-06T06:35:43.261Z,14.10
2018-03-06T06:36:15.006Z,14.10
2018-03-06T06:36:46.741Z,14.10
2018-03-06T06:37:18.480Z,14.10
2018-03-06T06:37:50.226Z,14.10
2018-03-06T06:38:21.940Z,14.10
2018-03-06T06:38:53.648Z,14.10
2018-03-06T06:39:25.415Z,14.10
2018-03-06T06:39:57.133Z,14.10
2018-03-06T06:40:28.867Z,14.10
2018-03-06T06:41:00.579Z,14.10
2018-03-06T06:41:32.818Z,14.10
2018-03-06T06:42:05.307Z,14.10
2018-03-06T06:42:37.053Z,14.10
2018-03-06T06:43:08.789Z,14.10
2018-03-06T06:43:40.519Z,14.10
2018-03-06T06:44:13.010Z,14.10
2018-03-06T06:44:44.745Z,14.10
2018-03-06T06:45:16.478Z,14.10
2018-03-06T06:45:48.964Z,14.10
2018-03-06T06:46:20.702Z,14.10
2018-03-06T06:46:52.479Z,14.10
2018-03-06T06:47:24.936Z,14.10
2018-03-06T06:47:56.661Z,14.10
2018-03-06T06:48:28.392Z,14.10
2018-03-06T06:49:00.117Z,14.10
2018-03-06T06:49:32.613Z,14.10
2018-03-06T06:50:04.362Z,14.10